sensor_id;sensor_type;location;lat;lon;timestamp;temperature;humidity
51619;DHT22;38518;53.164;5.430;2022-11-02T00:01:18;11.00;1.00
51619;DHT22;38518;53.164;5.430;2022-11-02T00:03:45;11.00;1.00
51619;DHT22;38518;53.164;5.430;2022-11-02T00:06:11;11.10;1.00
51619;DHT22;38518;53.164;5.430;2022-11-02T00:08:37;11.10;1.00
51619;DHT22;38518;53.164;5.430;2022-11-02T00:11:03;11.10;1.00
51619;DHT22;38518;53.164;5.430;2022-11-02T00:13:28;11.20;1.00
51619;DHT22;38518;53.164;5.430;2022-11-02T00:15:55;11.10;1.00
51619;DHT22;38518;53.164;5.430;2022-11-02T00:18:21;11.10;1.00
51619;DHT22;38518;53.164;5.430;2022-11-02T00:20:47;11.10;1.00
51619;DHT22;38518;53.164;5.430;2022-11-02T00:23:13;11.20;1.00
51619;DHT22;38518;53.164;5.430;2022-11-02T00:25:42;11.30;1.00
51619;DHT22;38518;53.164;5.430;2022-11-02T00:28:09;11.30;1.00
51619;DHT22;38518;53.164;5.430;2022-11-02T00:30:35;11.30;1.00
51619;DHT22;38518;53.164;5.430;2022-11-02T00:33:01;11.30;1.00
51619;DHT22;38518;53.164;5.430;2022-11-02T00:35:27;11.30;1.00
51619;DHT22;38518;53.164;5.430;2022-11-02T00:37:53;11.30;1.00
51619;DHT22;38518;53.164;5.430;2022-11-02T00:40:19;11.30;1.00
51619;DHT22;38518;53.164;5.430;2022-11-02T00:42:44;11.20;99.90
51619;DHT22;38518;53.164;5.430;2022-11-02T00:45:10;11.30;99.90
51619;DHT22;38518;53.164;5.430;2022-11-02T00:47:36;11.30;99.90
51619;DHT22;38518;53.164;5.430;2022-11-02T00:50:02;11.30;99.90
51619;DHT22;38518;53.164;5.430;2022-11-02T00:52:28;11.30;99.90
51619;DHT22;38518;53.164;5.430;2022-11-02T00:54:54;11.30;99.90
51619;DHT22;38518;53.164;5.430;2022-11-02T00:57:19;11.30;99.90
51619;DHT22;38518;53.164;5.430;2022-11-02T00:59:45;11.40;99.90
51619;DHT22;38518;53.164;5.430;2022-11-02T01:02:11;11.40;99.90
51619;DHT22;38518;53.164;5.430;2022-11-02T01:04:36;11.50;99.90
51619;DHT22;38518;53.164;5.430;2022-11-02T01:07:02;11.40;99.90
51619;DHT22;38518;53.164;5.430;2022-11-02T01:09:28;11.50;99.90
51619;DHT22;38518;53.164;5.430;2022-11-02T01:11:54;11.50;99.90
51619;DHT22;38518;53.164;5.430;2022-11-02T01:14:20;11.50;99.90
51619;DHT22;38518;53.164;5.430;2022-11-02T01:16:46;11.50;99.90
51619;DHT22;38518;53.164;5.430;2022-11-02T01:19:12;11.50;99.90
51619;DHT22;38518;53.164;5.430;2022-11-02T01:21:37;11.80;99.90
51619;DHT22;38518;53.164;5.430;2022-11-02T01:24:03;11.50;99.90
51619;DHT22;38518;53.164;5.430;2022-11-02T01:26:29;11.40;99.90
51619;DHT22;38518;53.164;5.430;2022-11-02T01:28:55;11.40;99.90
51619;DHT22;38518;53.164;5.430;2022-11-02T01:31:21;11.40;99.90
51619;DHT22;38518;53.164;5.430;2022-11-02T01:33:47;11.30;83.20
51619;DHT22;38518;53.164;5.430;2022-11-02T01:36:14;11.40;99.90
51619;DHT22;38518;53.164;5.430;2022-11-02T01:38:40;11.30;70.80
51619;DHT22;38518;53.164;5.430;2022-11-02T01:41:06;11.30;1.00
51619;DHT22;38518;53.164;5.430;2022-11-02T01:43:36;11.30;1.00
51619;DHT22;38518;53.164;5.430;2022-11-02T01:48:41;11.30;1.00
51619;DHT22;38518;53.164;5.430;2022-11-02T01:51:14;11.20;10.60
51619;DHT22;38518;53.164;5.430;2022-11-02T01:53:45;11.20;1.00
51619;DHT22;38518;53.164;5.430;2022-11-02T01:56:15;11.20;1.00
51619;DHT22;38518;53.164;5.430;2022-11-02T01:58:45;11.10;20.60
51619;DHT22;38518;53.164;5.430;2022-11-02T02:01:11;11.10;1.00
51619;DHT22;38518;53.164;5.430;2022-11-02T02:03:38;11.00;56.50
51619;DHT22;38518;53.164;5.430;2022-11-02T02:06:09;11.00;18.50
51619;DHT22;38518;53.164;5.430;2022-11-02T02:08:43;10.90;55.20
51619;DHT22;38518;53.164;5.430;2022-11-02T02:11:32;10.90;58.00
51619;DHT22;38518;53.164;5.430;2022-11-02T02:28:43;10.80;99.90
51619;DHT22;38518;53.164;5.430;2022-11-02T02:34:16;10.80;99.90
51619;DHT22;38518;53.164;5.430;2022-11-02T02:36:50;10.80;99.90
51619;DHT22;38518;53.164;5.430;2022-11-02T02:42:17;10.90;99.90
51619;DHT22;38518;53.164;5.430;2022-11-02T02:44:57;11.00;99.90
51619;DHT22;38518;53.164;5.430;2022-11-02T02:47:27;11.10;99.90
51619;DHT22;38518;53.164;5.430;2022-11-02T02:49:58;11.00;99.90
51619;DHT22;38518;53.164;5.430;2022-11-02T02:52:28;10.90;99.90
51619;DHT22;38518;53.164;5.430;2022-11-02T02:54:57;10.70;1.00
51619;DHT22;38518;53.164;5.430;2022-11-02T02:57:26;10.60;1.00
51619;DHT22;38518;53.164;5.430;2022-11-02T02:59:53;10.50;1.00
51619;DHT22;38518;53.164;5.430;2022-11-02T03:02:24;10.60;1.00
51619;DHT22;38518;53.164;5.430;2022-11-02T03:04:51;10.30;1.00
51619;DHT22;38518;53.164;5.430;2022-11-02T03:07:20;10.30;3.90
51619;DHT22;38518;53.164;5.430;2022-11-02T03:10:16;10.30;39.80
51619;DHT22;38518;53.164;5.430;2022-11-02T03:13:27;10.20;79.60
51619;DHT22;38518;53.164;5.430;2022-11-02T03:18:52;10.20;99.90
51619;DHT22;38518;53.164;5.430;2022-11-02T03:21:38;10.20;99.90
51619;DHT22;38518;53.164;5.430;2022-11-02T03:26:51;10.30;99.90
51619;DHT22;38518;53.164;5.430;2022-11-02T03:29:37;10.40;99.90
51619;DHT22;38518;53.164;5.430;2022-11-02T03:32:10;10.40;99.90
51619;DHT22;38518;53.164;5.430;2022-11-02T03:35:03;10.40;99.90
51619;DHT22;38518;53.164;5.430;2022-11-02T03:37:32;10.50;99.90
51619;DHT22;38518;53.164;5.430;2022-11-02T03:42:32;10.50;99.90
51619;DHT22;38518;53.164;5.430;2022-11-02T03:45:05;10.50;99.90
51619;DHT22;38518;53.164;5.430;2022-11-02T03:47:32;10.40;99.90
51619;DHT22;38518;53.164;5.430;2022-11-02T03:50:01;10.40;99.90
51619;DHT22;38518;53.164;5.430;2022-11-02T03:52:29;10.30;99.90
51619;DHT22;38518;53.164;5.430;2022-11-02T03:57:37;10.30;99.90
51619;DHT22;38518;53.164;5.430;2022-11-02T04:00:07;10.30;99.90
51619;DHT22;38518;53.164;5.430;2022-11-02T04:02:35;10.30;99.90
51619;DHT22;38518;53.164;5.430;2022-11-02T04:05:02;10.30;99.90
51619;DHT22;38518;53.164;5.430;2022-11-02T04:07:32;10.30;99.90
51619;DHT22;38518;53.164;5.430;2022-11-02T04:10:19;10.30;99.90
51619;DHT22;38518;53.164;5.430;2022-11-02T04:12:45;10.30;99.90
51619;DHT22;38518;53.164;5.430;2022-11-02T04:15:29;10.20;99.90
51619;DHT22;38518;53.164;5.430;2022-11-02T04:17:55;10.20;99.90
51619;DHT22;38518;53.164;5.430;2022-11-02T04:20:39;10.20;99.90
51619;DHT22;38518;53.164;5.430;2022-11-02T04:23:05;10.40;99.90
51619;DHT22;38518;53.164;5.430;2022-11-02T04:25:55;10.20;99.90
51619;DHT22;38518;53.164;5.430;2022-11-02T04:28:21;10.30;99.90
51619;DHT22;38518;53.164;5.430;2022-11-02T04:30:46;10.30;99.90
51619;DHT22;38518;53.164;5.430;2022-11-02T04:33:12;10.30;99.90
51619;DHT22;38518;53.164;5.430;2022-11-02T04:36:05;10.40;99.90
51619;DHT22;38518;53.164;5.430;2022-11-02T04:38:32;10.40;99.90
51619;DHT22;38518;53.164;5.430;2022-11-02T04:41:17;10.50;99.90
51619;DHT22;38518;53.164;5.430;2022-11-02T04:44:02;10.50;99.90
51619;DHT22;38518;53.164;5.430;2022-11-02T04:46:30;10.50;99.90
51619;DHT22;38518;53.164;5.430;2022-11-02T04:48:56;10.50;99.90
51619;DHT22;38518;53.164;5.430;2022-11-02T04:51:23;10.90;99.90
51619;DHT22;38518;53.164;5.430;2022-11-02T04:53:51;10.40;99.90
51619;DHT22;38518;53.164;5.430;2022-11-02T04:56:17;10.40;99.90
51619;DHT22;38518;53.164;5.430;2022-11-02T04:58:42;10.40;99.90
51619;DHT22;38518;53.164;5.430;2022-11-02T05:01:13;10.40;99.90
51619;DHT22;38518;53.164;5.430;2022-11-02T05:03:39;10.40;99.90
51619;DHT22;38518;53.164;5.430;2022-11-02T05:06:05;10.40;99.90
51619;DHT22;38518;53.164;5.430;2022-11-02T05:08:31;10.40;99.90
51619;DHT22;38518;53.164;5.430;2022-11-02T05:10:58;10.60;99.90
51619;DHT22;38518;53.164;5.430;2022-11-02T05:13:25;10.50;99.90
51619;DHT22;38518;53.164;5.430;2022-11-02T05:15:54;10.60;99.90
51619;DHT22;38518;53.164;5.430;2022-11-02T05:18:20;10.60;99.90
51619;DHT22;38518;53.164;5.430;2022-11-02T05:20:50;10.60;89.10
51619;DHT22;38518;53.164;5.430;2022-11-02T05:23:17;10.60;69.40
51619;DHT22;38518;53.164;5.430;2022-11-02T05:25:50;10.60;50.40
51619;DHT22;38518;53.164;5.430;2022-11-02T05:28:16;10.70;24.60
51619;DHT22;38518;53.164;5.430;2022-11-02T05:30:41;10.60;15.10
51619;DHT22;38518;53.164;5.430;2022-11-02T05:33:08;10.60;1.00
51619;DHT22;38518;53.164;5.430;2022-11-02T05:35:33;10.60;1.00
51619;DHT22;38518;53.164;5.430;2022-11-02T05:37:59;10.60;1.00
51619;DHT22;38518;53.164;5.430;2022-11-02T05:40:25;10.70;1.00
51619;DHT22;38518;53.164;5.430;2022-11-02T05:42:50;10.70;1.00
51619;DHT22;38518;53.164;5.430;2022-11-02T05:45:16;10.70;1.00
51619;DHT22;38518;53.164;5.430;2022-11-02T05:47:42;10.70;1.00
51619;DHT22;38518;53.164;5.430;2022-11-02T05:50:07;10.80;1.00
51619;DHT22;38518;53.164;5.430;2022-11-02T05:52:35;10.80;1.00
51619;DHT22;38518;53.164;5.430;2022-11-02T05:55:01;10.90;1.00
51619;DHT22;38518;53.164;5.430;2022-11-02T05:57:26;10.90;1.00
51619;DHT22;38518;53.164;5.430;2022-11-02T05:59:52;11.00;99.90
51619;DHT22;38518;53.164;5.430;2022-11-02T06:02:17;10.90;99.90
51619;DHT22;38518;53.164;5.430;2022-11-02T06:04:43;10.90;99.90
51619;DHT22;38518;53.164;5.430;2022-11-02T06:07:09;10.80;99.90
51619;DHT22;38518;53.164;5.430;2022-11-02T06:09:34;10.70;99.90
51619;DHT22;38518;53.164;5.430;2022-11-02T06:12:01;10.60;99.90
51619;DHT22;38518;53.164;5.430;2022-11-02T06:14:26;10.40;99.90
51619;DHT22;38518;53.164;5.430;2022-11-02T06:16:52;10.30;99.90
51619;DHT22;38518;53.164;5.430;2022-11-02T06:19:17;10.20;99.90
51619;DHT22;38518;53.164;5.430;2022-11-02T06:21:43;10.30;99.90
51619;DHT22;38518;53.164;5.430;2022-11-02T06:24:09;10.30;99.90
51619;DHT22;38518;53.164;5.430;2022-11-02T06:26:34;10.30;99.90
51619;DHT22;38518;53.164;5.430;2022-11-02T06:29:00;10.40;99.90
51619;DHT22;38518;53.164;5.430;2022-11-02T06:31:26;10.40;99.90
51619;DHT22;38518;53.164;5.430;2022-11-02T06:33:52;10.80;99.90
51619;DHT22;38518;53.164;5.430;2022-11-02T06:36:17;10.50;99.90
51619;DHT22;38518;53.164;5.430;2022-11-02T06:38:43;10.50;99.90
51619;DHT22;38518;53.164;5.430;2022-11-02T06:41:10;10.50;99.90
51619;DHT22;38518;53.164;5.430;2022-11-02T06:43:36;10.60;99.90
51619;DHT22;38518;53.164;5.430;2022-11-02T06:46:03;10.60;99.90
51619;DHT22;38518;53.164;5.430;2022-11-02T06:48:29;10.70;66.30
51619;DHT22;38518;53.164;5.430;2022-11-02T06:50:56;10.80;1.00
51619;DHT22;38518;53.164;5.430;2022-11-02T06:53:22;10.80;1.00
51619;DHT22;38518;53.164;5.430;2022-11-02T06:55:55;10.80;1.00
51619;DHT22;38518;53.164;5.430;2022-11-02T06:58:22;10.80;8.20
51619;DHT22;38518;53.164;5.430;2022-11-02T07:00:50;10.80;9.00
51619;DHT22;38518;53.164;5.430;2022-11-02T07:03:15;10.80;39.40
51619;DHT22;38518;53.164;5.430;2022-11-02T07:05:41;10.80;89.70
51619;DHT22;38518;53.164;5.430;2022-11-02T07:08:08;10.80;39.90
51619;DHT22;38518;53.164;5.430;2022-11-02T07:10:34;10.90;99.90
51619;DHT22;38518;53.164;5.430;2022-11-02T07:13:00;10.90;66.20
51619;DHT22;38518;53.164;5.430;2022-11-02T07:15:25;10.90;99.90
51619;DHT22;38518;53.164;5.430;2022-11-02T07:17:52;11.00;99.90
51619;DHT22;38518;53.164;5.430;2022-11-02T07:20:18;11.00;96.80
51619;DHT22;38518;53.164;5.430;2022-11-02T07:22:55;10.90;99.90
51619;DHT22;38518;53.164;5.430;2022-11-02T07:25:22;10.80;83.20
51619;DHT22;38518;53.164;5.430;2022-11-02T07:27:48;10.90;75.60
51619;DHT22;38518;53.164;5.430;2022-11-02T07:30:13;10.90;24.40
51619;DHT22;38518;53.164;5.430;2022-11-02T07:32:40;11.00;99.90
51619;DHT22;38518;53.164;5.430;2022-11-02T07:35:07;11.00;99.90
51619;DHT22;38518;53.164;5.430;2022-11-02T07:37:33;11.00;56.10
51619;DHT22;38518;53.164;5.430;2022-11-02T07:39:59;11.10;95.40
51619;DHT22;38518;53.164;5.430;2022-11-02T07:42:25;11.10;99.90
51619;DHT22;38518;53.164;5.430;2022-11-02T07:44:51;11.10;99.90
51619;DHT22;38518;53.164;5.430;2022-11-02T07:47:17;11.10;80.10
51619;DHT22;38518;53.164;5.430;2022-11-02T07:49:42;11.20;99.90
51619;DHT22;38518;53.164;5.430;2022-11-02T07:52:08;11.30;16.20
51619;DHT22;38518;53.164;5.430;2022-11-02T07:54:34;11.40;1.00
51619;DHT22;38518;53.164;5.430;2022-11-02T07:56:59;11.50;99.90
51619;DHT22;38518;53.164;5.430;2022-11-02T07:59:25;11.40;1.00
51619;DHT22;38518;53.164;5.430;2022-11-02T08:01:51;11.40;1.00
51619;DHT22;38518;53.164;5.430;2022-11-02T08:04:17;11.50;1.00
51619;DHT22;38518;53.164;5.430;2022-11-02T08:06:42;11.50;1.00
51619;DHT22;38518;53.164;5.430;2022-11-02T08:09:08;11.60;1.00
51619;DHT22;38518;53.164;5.430;2022-11-02T08:11:34;11.60;99.90
51619;DHT22;38518;53.164;5.430;2022-11-02T08:13:59;11.50;1.00
51619;DHT22;38518;53.164;5.430;2022-11-02T08:16:27;11.50;1.00
51619;DHT22;38518;53.164;5.430;2022-11-02T08:18:53;11.40;1.00
51619;DHT22;38518;53.164;5.430;2022-11-02T08:21:18;11.50;1.00
51619;DHT22;38518;53.164;5.430;2022-11-02T08:23:44;11.50;1.00
51619;DHT22;38518;53.164;5.430;2022-11-02T08:26:10;11.60;1.00
51619;DHT22;38518;53.164;5.430;2022-11-02T08:28:36;11.60;1.00
51619;DHT22;38518;53.164;5.430;2022-11-02T08:31:06;11.70;1.00
51619;DHT22;38518;53.164;5.430;2022-11-02T08:33:32;11.80;1.00
51619;DHT22;38518;53.164;5.430;2022-11-02T08:36:02;11.90;1.00
51619;DHT22;38518;53.164;5.430;2022-11-02T08:38:29;11.90;99.90
51619;DHT22;38518;53.164;5.430;2022-11-02T08:40:55;12.00;99.90
51619;DHT22;38518;53.164;5.430;2022-11-02T08:43:20;12.10;99.90
51619;DHT22;38518;53.164;5.430;2022-11-02T08:45:46;12.20;99.90
51619;DHT22;38518;53.164;5.430;2022-11-02T08:48:12;12.30;99.90
51619;DHT22;38518;53.164;5.430;2022-11-02T08:50:38;12.40;99.90
51619;DHT22;38518;53.164;5.430;2022-11-02T08:53:04;12.40;99.90
51619;DHT22;38518;53.164;5.430;2022-11-02T08:55:30;12.40;99.90
51619;DHT22;38518;53.164;5.430;2022-11-02T08:57:58;12.50;99.90
51619;DHT22;38518;53.164;5.430;2022-11-02T09:00:29;12.60;99.90
51619;DHT22;38518;53.164;5.430;2022-11-02T09:03:07;12.70;99.90
51619;DHT22;38518;53.164;5.430;2022-11-02T09:05:39;12.80;99.90
51619;DHT22;38518;53.164;5.430;2022-11-02T09:08:08;12.80;99.90
51619;DHT22;38518;53.164;5.430;2022-11-02T09:10:35;12.80;99.90
51619;DHT22;38518;53.164;5.430;2022-11-02T09:13:04;12.70;99.90
51619;DHT22;38518;53.164;5.430;2022-11-02T09:15:35;12.90;99.90
51619;DHT22;38518;53.164;5.430;2022-11-02T09:18:01;13.20;99.90
51619;DHT22;38518;53.164;5.430;2022-11-02T09:20:27;12.90;99.90
51619;DHT22;38518;53.164;5.430;2022-11-02T09:22:53;13.40;99.90
51619;DHT22;38518;53.164;5.430;2022-11-02T09:25:20;13.30;99.90
51619;DHT22;38518;53.164;5.430;2022-11-02T09:27:45;13.50;99.90
51619;DHT22;38518;53.164;5.430;2022-11-02T09:30:12;13.80;99.90
51619;DHT22;38518;53.164;5.430;2022-11-02T09:32:38;14.00;99.90
51619;DHT22;38518;53.164;5.430;2022-11-02T09:35:08;14.20;99.90
51619;DHT22;38518;53.164;5.430;2022-11-02T09:37:34;14.30;99.90
51619;DHT22;38518;53.164;5.430;2022-11-02T09:39:59;14.50;99.90
51619;DHT22;38518;53.164;5.430;2022-11-02T09:42:42;15.00;99.90
51619;DHT22;38518;53.164;5.430;2022-11-02T09:45:16;15.40;99.90
51619;DHT22;38518;53.164;5.430;2022-11-02T09:47:53;15.60;91.60
51619;DHT22;38518;53.164;5.430;2022-11-02T09:50:23;15.60;56.90
51619;DHT22;38518;53.164;5.430;2022-11-02T09:52:56;16.10;69.30
51619;DHT22;38518;53.164;5.430;2022-11-02T09:55:33;15.70;41.80
